Time;durP1;ratioP1;P1;durP2;ratioP2;P2;SDS_P1;SDS_P2;PMS_P1;PMS_P2;Temp;Humidity;BMP_temperature;BMP_pressure;BME280_temperature;BME280_humidity;BME280_pressure;Samples;Min_cycle;Max_cycle;Signal;HPM_P1;HPM_P2
2022/08/27 00:01:15;;;;;;;0.30;0.30;;;15.30;99.90;;;;;;5013407;28;20393;-76
2022/08/27 00:03:43;;;;;;;0.65;0.20;;;15.30;99.90;;;;;;5044083;28;20411;-77
2022/08/27 00:06:11;;;;;;;0.88;0.30;;;15.10;99.90;;;;;;5042756;28;20044;-78
2022/08/27 00:08:37;;;;;;;0.10;0.10;;;15.20;99.90;;;;;;5009645;28;20036;-76
2022/08/27 00:11:03;;;;;;;0.65;0.30;;;15.00;99.90;;;;;;5043703;28;20049;-76
2022/08/27 00:13:28;;;;;;;0.65;0.20;;;15.00;99.90;;;;;;5041604;28;20041;-77
2022/08/27 00:15:54;;;;;;;0.25;0.25;;;15.10;99.90;;;;;;5026138;28;20083;-77
2022/08/27 00:18:20;;;;;;;0.50;0.20;;;15.00;99.90;;;;;;5009724;28;20041;-76
2022/08/27 00:20:46;;;;;;;0.10;0.10;;;15.10;99.90;;;;;;5042645;28;20032;-77
2022/08/27 00:23:12;;;;;;;0.82;0.30;;;14.90;99.90;;;;;;5025706;28;20048;-77
2022/08/27 00:25:37;;;;;;;0.50;0.20;;;15.00;99.90;;;;;;5042133;28;20040;-77
2022/08/27 00:28:05;;;;;;;0.17;0.17;;;15.00;99.90;;;;;;5014272;28;20132;-78
2022/08/27 00:30:30;;;;;;;0.20;0.20;;;14.90;99.90;;;;;;5017601;28;20055;-78
2022/08/27 00:32:56;;;;;;;0.40;0.25;;;14.80;99.90;;;;;;5016957;28;20098;-77
2022/08/27 00:35:22;;;;;;;0.17;0.17;;;14.80;99.90;;;;;;5041415;28;20139;-77
2022/08/27 00:37:49;;;;;;;0.30;0.20;;;14.80;99.90;;;;;;5040920;28;20037;-78
2022/08/27 00:40:18;;;;;;;0.68;0.30;;;14.80;99.90;;;;;;5009547;28;20037;-77
2022/08/27 00:42:44;;;;;;;0.30;0.13;;;14.70;99.90;;;;;;5042310;28;20048;-77
2022/08/27 00:45:11;;;;;;;;;;;14.60;99.90;;;;;;5043867;28;20056;-77
2022/08/27 00:47:42;;;;;;;0.38;0.30;;;14.60;99.90;;;;;;5017571;28;19966;-78
2022/08/27 00:50:13;;;;;;;0.75;0.30;;;14.50;99.90;;;;;;5014973;28;20076;-77
2022/08/27 00:52:47;;;;;;;0.40;0.30;;;14.50;99.90;;;;;;5041386;28;20091;-77
2022/08/27 00:55:19;;;;;;;0.35;0.30;;;14.70;99.90;;;;;;5040891;28;20472;-77
2022/08/27 00:57:51;;;;;;;0.60;0.22;;;14.60;99.90;;;;;;5045457;28;20496;-78
2022/08/27 01:00:18;;;;;;;0.68;0.47;;;14.60;99.90;;;;;;5029779;28;20051;-77
2022/08/27 01:02:46;;;;;;;0.20;0.20;;;14.60;99.90;;;;;;5045251;28;20040;-78
2022/08/27 01:05:17;;;;;;;0.28;0.20;;;14.50;99.90;;;;;;5052220;28;20039;-82
2022/08/27 01:07:47;;;;;;;0.45;0.22;;;14.50;99.90;;;;;;5048804;28;20119;-80
2022/08/27 01:10:18;;;;;;;0.40;0.30;;;14.40;99.90;;;;;;5048075;28;20045;-80
2022/08/27 01:12:45;;;;;;;0.38;0.25;;;14.50;99.90;;;;;;5048369;28;20388;-81
2022/08/27 01:15:14;;;;;;;0.35;0.28;;;14.50;99.90;;;;;;5032261;28;20041;-81
2022/08/27 01:17:41;;;;;;;0.50;0.20;;;14.60;99.90;;;;;;5047588;28;20116;-81
2022/08/27 01:20:18;;;;;;;0.90;0.52;;;14.60;99.90;;;;;;5048080;28;20111;-80
2022/08/27 01:23:33;;;;;;;0.65;0.40;;;14.60;99.90;;;;;;5043899;28;20455;-80
2022/08/27 01:26:00;;;;;;;0.60;0.30;;;14.60;99.90;;;;;;5025898;28;20053;-81
2022/08/27 01:28:28;;;;;;;0.40;0.22;;;14.70;99.90;;;;;;5048587;28;20159;-81
2022/08/27 01:30:53;;;;;;;0.65;0.28;;;14.60;99.90;;;;;;5048893;28;20533;-81
2022/08/27 01:33:20;;;;;;;0.40;0.30;;;14.70;99.90;;;;;;5035136;28;20053;-81
2022/08/27 01:35:48;;;;;;;0.30;0.13;;;14.70;99.90;;;;;;5059418;28;20865;-81
2022/08/27 01:38:15;;;;;;;0.55;0.30;;;14.60;99.90;;;;;;5032430;28;20514;-81
2022/08/27 01:40:41;;;;;;;0.52;0.30;;;14.70;99.90;;;;;;5028184;28;20112;-81
2022/08/27 01:43:07;;;;;;;0.38;0.30;;;14.70;99.90;;;;;;5040921;28;20120;-81
2022/08/27 01:45:34;;;;;;;;;;;14.70;99.90;;;;;;5055539;28;20040;-81
2022/08/27 01:48:01;;;;;;;0.40;0.40;;;14.70;99.90;;;;;;5049750;28;19931;-80
2022/08/27 01:50:33;;;;;;;0.60;0.32;;;14.60;99.90;;;;;;5044329;28;20041;-81
2022/08/27 01:53:08;;;;;;;0.38;0.20;;;14.60;99.90;;;;;;5030167;28;20077;-81
2022/08/27 01:55:34;;;;;;;0.60;0.30;;;14.70;99.90;;;;;;5032551;28;20488;-81
2022/08/27 01:57:59;;;;;;;0.70;0.40;;;14.60;99.90;;;;;;5053257;28;20071;-81
2022/08/27 02:00:35;;;;;;;0.30;0.30;;;14.70;99.90;;;;;;5051408;28;20041;-80
2022/08/27 02:03:02;;;;;;;0.47;0.30;;;14.60;99.90;;;;;;5051470;28;20044;-82
2022/08/27 02:05:28;;;;;;;0.60;0.40;;;14.60;99.90;;;;;;5046973;28;20094;-81
2022/08/27 02:07:55;;;;;;;0.30;0.30;;;14.50;99.90;;;;;;5047261;28;20073;-81
2022/08/27 02:10:31;;;;;;;0.30;0.30;;;14.50;99.90;;;;;;5048825;28;20052;-80
2022/08/27 02:12:57;;;;;;;0.25;0.20;;;14.60;99.90;;;;;;5045741;28;20048;-80
2022/08/27 02:15:24;;;;;;;0.50;0.40;;;14.40;99.90;;;;;;5039169;28;20450;-81
2022/08/27 02:17:51;;;;;;;0.43;0.40;;;14.40;99.90;;;;;;5049683;28;20045;-81
2022/08/27 02:20:17;;;;;;;0.30;0.30;;;14.30;99.90;;;;;;5014605;28;20473;-81
2022/08/27 02:22:44;;;;;;;0.40;0.30;;;14.30;99.90;;;;;;5032039;28;21744;-82
2022/08/27 02:25:12;;;;;;;0.30;0.30;;;14.30;99.90;;;;;;5040819;28;20064;-81
2022/08/27 02:27:40;;;;;;;0.52;0.30;;;14.30;99.90;;;;;;5039864;28;20047;-81
2022/08/27 02:30:08;;;;;;;0.40;0.20;;;14.10;99.90;;;;;;5034698;28;20045;-81
2022/08/27 02:32:34;;;;;;;0.30;0.30;;;14.10;99.90;;;;;;5029264;28;20109;-81
2022/08/27 02:35:01;;;;;;;0.50;0.40;;;14.00;99.90;;;;;;5037700;28;20109;-81
2022/08/27 02:37:27;;;;;;;0.30;0.30;;;13.90;99.90;;;;;;5050828;28;20513;-81
2022/08/27 02:39:53;;;;;;;0.22;0.20;;;14.00;99.90;;;;;;5044932;28;20036;-81
2022/08/27 02:42:19;;;;;;;0.30;0.30;;;13.80;99.90;;;;;;5046523;28;20036;-81
2022/08/27 02:44:45;;;;;;;0.52;0.30;;;13.90;99.90;;;;;;5032959;28;20107;-81
2022/08/27 02:47:11;;;;;;;0.30;0.20;;;13.80;99.90;;;;;;5035142;28;20044;-81
2022/08/27 02:49:36;;;;;;;0.30;0.20;;;13.70;99.90;;;;;;5047857;28;20037;-81
2022/08/27 02:52:03;;;;;;;1.77;0.32;;;13.70;99.90;;;;;;5034451;28;20087;-80
2022/08/27 02:54:28;;;;;;;;;;;13.70;99.90;;;;;;5047096;28;20373;-80
2022/08/27 02:56:54;;;;;;;0.45;0.30;;;13.60;99.90;;;;;;5050271;28;19931;-81
2022/08/27 02:59:21;;;;;;;0.35;0.28;;;13.70;99.90;;;;;;5040548;28;20045;-81
2022/08/27 03:01:47;;;;;;;0.50;0.20;;;13.50;99.90;;;;;;5050470;28;20037;-81
2022/08/27 03:04:13;;;;;;;0.55;0.40;;;13.60;99.90;;;;;;5047893;28;20120;-80
2022/08/27 03:06:40;;;;;;;0.22;0.22;;;13.50;99.90;;;;;;5037556;28;20127;-81
2022/08/27 03:09:09;;;;;;;0.43;0.20;;;13.60;99.90;;;;;;5052589;28;20041;-80
2022/08/27 03:11:35;;;;;;;0.38;0.30;;;13.60;99.90;;;;;;5055927;28;20131;-80
2022/08/27 03:14:01;;;;;;;0.50;0.30;;;13.50;99.90;;;;;;5035697;28;20116;-80
2022/08/27 03:16:26;;;;;;;0.28;0.20;;;13.50;99.90;;;;;;5035841;28;20123;-80
2022/08/27 03:18:52;;;;;;;0.20;0.20;;;13.50;99.90;;;;;;5050604;28;20064;-80
2022/08/27 03:21:23;;;;;;;0.10;0.10;;;13.50;99.90;;;;;;5033797;28;20120;-81
2022/08/27 03:23:50;;;;;;;0.88;0.38;;;13.30;99.90;;;;;;5033181;28;20078;-80
2022/08/27 03:26:17;;;;;;;0.40;0.30;;;13.40;99.90;;;;;;5046837;28;20043;-80
2022/08/27 03:28:43;;;;;;;0.60;0.30;;;13.40;99.90;;;;;;5048326;28;20468;-80
2022/08/27 03:31:15;;;;;;;0.30;0.20;;;13.30;99.90;;;;;;5033391;28;21737;-81
2022/08/27 03:33:42;;;;;;;0.30;0.25;;;13.40;99.90;;;;;;5046557;28;20132;-80
2022/08/27 03:36:08;;;;;;;0.20;0.20;;;13.20;99.90;;;;;;5048028;28;20128;-80
2022/08/27 03:38:34;;;;;;;0.80;0.45;;;13.30;99.90;;;;;;5046832;28;20156;-79
2022/08/27 03:41:02;;;;;;;0.20;0.20;;;13.30;99.90;;;;;;5030795;28;20047;-80
2022/08/27 03:43:27;;;;;;;0.32;0.20;;;13.20;99.90;;;;;;5030954;28;20049;-80
2022/08/27 03:45:53;;;;;;;0.38;0.28;;;13.10;99.90;;;;;;5046756;28;20086;-80
2022/08/27 03:48:19;;;;;;;0.30;0.20;;;13.20;99.90;;;;;;5030401;28;20045;-80
2022/08/27 03:50:49;;;;;;;0.28;0.20;;;13.20;99.90;;;;;;5032973;28;20083;-79
2022/08/27 03:53:16;;;;;;;0.30;0.20;;;13.00;99.90;;;;;;5047280;28;20097;-80
2022/08/27 03:55:42;;;;;;;0.55;0.30;;;13.10;99.90;;;;;;5049173;28;20036;-80
2022/08/27 03:58:11;;;;;;;0.40;0.25;;;13.10;99.90;;;;;;5033261;28;20153;-80
2022/08/27 04:00:38;;;;;;;0.20;0.20;;;12.90;99.90;;;;;;5030769;28;20068;-79
2022/08/27 04:03:04;;;;;;;0.30;0.20;;;13.00;99.90;;;;;;5045674;28;20068;-80
2022/08/27 04:05:31;;;;;;;;;;;13.00;99.90;;;;;;5046024;28;20053;-80
2022/08/27 04:07:56;;;;;;;0.40;0.20;;;12.80;99.90;;;;;;5044860;28;19946;-79
2022/08/27 04:10:22;;;;;;;0.60;0.15;;;12.90;99.90;;;;;;5029555;28;20077;-79
2022/08/27 04:12:48;;;;;;;0.10;0.10;;;12.90;99.90;;;;;;5045559;28;20484;-80
2022/08/27 04:15:14;;;;;;;0.60;0.22;;;12.90;99.90;;;;;;5049576;28;20086;-81
2022/08/27 04:17:40;;;;;;;0.22;0.20;;;12.70;99.90;;;;;;5050411;28;20045;-81
2022/08/27 04:20:06;;;;;;;0.20;0.20;;;12.80;99.90;;;;;;5034249;28;20037;-81
2022/08/27 04:22:32;;;;;;;0.10;0.10;;;12.60;99.90;;;;;;5052306;28;20062;-81
2022/08/27 04:24:59;;;;;;;0.38;0.10;;;12.70;99.90;;;;;;5039662;28;20594;-80
2022/08/27 04:27:25;;;;;;;;;;;12.60;99.90;;;;;;5032569;28;20040;-80
2022/08/27 04:29:55;;;;;;;0.20;0.20;;;12.70;99.90;;;;;;5034212;28;20379;-80
2022/08/27 04:32:28;;;;;;;0.38;0.20;;;12.60;99.90;;;;;;5052767;28;20123;-80
2022/08/27 04:34:56;;;;;;;0.30;0.10;;;12.50;99.90;;;;;;5065529;28;20045;-81
2022/08/27 04:37:24;;;;;;;0.30;0.20;;;12.40;99.90;;;;;;5052234;28;20098;-80
2022/08/27 04:39:50;;;;;;;0.30;0.20;;;12.60;99.90;;;;;;5039290;28;20119;-80
2022/08/27 04:42:18;;;;;;;0.30;0.20;;;12.60;99.90;;;;;;5038767;28;20040;-78
2022/08/27 04:44:44;;;;;;;0.32;0.25;;;12.50;99.90;;;;;;5049733;28;20064;-80
2022/08/27 04:47:11;;;;;;;0.52;0.20;;;12.50;99.90;;;;;;5052941;28;20044;-79
2022/08/27 04:49:36;;;;;;;0.20;0.20;;;12.60;99.90;;;;;;5050816;28;20043;-79
2022/08/27 04:52:03;;;;;;;0.30;0.20;;;12.60;99.90;;;;;;5030806;28;20044;-80
2022/08/27 04:54:29;;;;;;;0.20;0.20;;;12.70;99.90;;;;;;5055093;28;20384;-79
2022/08/27 04:56:55;;;;;;;0.10;0.10;;;12.70;99.90;;;;;;5047970;28;20090;-80
2022/08/27 04:59:21;;;;;;;0.73;0.30;;;12.80;99.90;;;;;;5054260;28;20036;-80
2022/08/27 05:01:47;;;;;;;0.20;0.13;;;12.90;99.90;;;;;;5033947;28;20116;-80
2022/08/27 05:04:15;;;;;;;0.30;0.20;;;12.90;99.90;;;;;;5050400;28;20114;-80
2022/08/27 05:06:44;;;;;;;0.22;0.17;;;13.00;99.90;;;;;;5053158;28;20123;-80
2022/08/27 05:09:10;;;;;;;0.20;0.20;;;13.20;99.90;;;;;;5051542;28;20399;-81
2022/08/27 05:11:36;;;;;;;0.10;0.10;;;13.10;99.90;;;;;;5035576;28;20048;-81
2022/08/27 05:14:04;;;;;;;0.13;0.13;;;13.30;99.90;;;;;;5016690;28;20422;-80
2022/08/27 05:16:30;;;;;;;0.47;0.20;;;13.30;99.90;;;;;;5050645;28;20056;-83
2022/08/27 05:18:57;;;;;;;0.08;0.08;;;13.40;99.90;;;;;;5053000;28;20853;-81
2022/08/27 05:21:30;;;;;;;0.10;0.10;;;13.60;99.90;;;;;;5047998;28;20857;-81
2022/08/27 05:23:59;;;;;;;0.20;0.10;;;13.60;99.90;;;;;;5028638;28;20400;-77
2022/08/27 05:26:27;;;;;;;0.40;0.20;;;13.60;99.90;;;;;;5031444;28;20361;-78
2022/08/27 05:28:52;;;;;;;1.13;0.13;;;13.90;99.90;;;;;;5047561;28;20075;-77
2022/08/27 05:31:20;;;;;;;0.10;0.00;;;14.00;99.90;;;;;;5049221;28;20451;-77
2022/08/27 05:33:46;;;;;;;0.10;0.10;;;14.10;99.90;;;;;;5048399;28;20633;-77
2022/08/27 05:36:19;;;;;;;0.10;0.10;;;14.10;99.90;;;;;;5045936;28;21749;-73
2022/08/27 05:38:45;;;;;;;0.10;0.10;;;14.10;99.90;;;;;;5047502;28;20514;-73
2022/08/27 05:41:14;;;;;;;0.20;0.13;;;14.20;99.90;;;;;;5025674;28;20044;-82
2022/08/27 05:43:41;;;;;;;0.10;0.10;;;14.40;99.90;;;;;;5039992;28;20047;-81
2022/08/27 05:46:09;;;;;;;0.10;0.10;;;14.50;99.90;;;;;;5053270;28;20041;-80
2022/08/27 05:48:36;;;;;;;0.63;0.30;;;14.40;99.90;;;;;;5039249;28;20051;-80
2022/08/27 05:51:33;;;;;;;0.30;0.20;;;14.60;99.90;;;;;;5052107;28;20135;-81
2022/08/27 05:54:13;;;;;;;0.40;0.20;;;14.70;99.90;;;;;;5052589;28;20047;-81
2022/08/27 05:56:41;;;;;;;0.17;0.17;;;14.90;99.90;;;;;;5053483;28;20029;-81
2022/08/27 06:01:53;;;;;;;0.38;0.20;;;15.20;99.90;;;;;;5046169;28;20052;-81
2022/08/27 06:04:21;;;;;;;0.10;0.10;;;15.10;99.90;;;;;;5050681;28;20487;-76
2022/08/27 06:06:48;;;;;;;0.10;0.10;;;15.20;99.90;;;;;;5046297;28;20068;-77
2022/08/27 06:09:25;;;;;;;0.10;0.10;;;15.40;99.90;;;;;;5022871;28;22138;-78
2022/08/27 06:11:54;;;;;;;0.40;0.20;;;15.40;99.90;;;;;;5045946;28;20090;-78
2022/08/27 06:14:20;;;;;;;0.28;0.20;;;15.50;99.90;;;;;;5045424;28;20140;-78
2022/08/27 06:16:46;;;;;;;0.10;0.10;;;15.60;99.90;;;;;;5046272;28;20119;-78
2022/08/27 06:19:11;;;;;;;0.30;0.15;;;15.70;99.90;;;;;;5027956;28;20051;-78
2022/08/27 06:21:39;;;;;;;1.30;0.10;;;15.70;99.90;;;;;;5027155;28;20040;-78
2022/08/27 06:24:05;;;;;;;0.57;0.30;;;15.70;99.90;;;;;;5046523;28;20259;-78
2022/08/27 06:26:30;;;;;;;;;;;15.80;99.90;;;;;;5042916;28;20075;-78
2022/08/27 06:29:04;;;;;;;0.52;0.28;;;15.70;99.90;;;;;;5043654;28;19971;-78
2022/08/27 06:31:29;;;;;;;0.40;0.20;;;15.80;99.90;;;;;;5045509;28;20082;-77
2022/08/27 06:33:59;;;;;;;1.10;0.20;;;15.90;99.90;;;;;;5043176;28;20041;-77
2022/08/27 06:36:25;;;;;;;0.10;0.10;;;15.90;99.90;;;;;;5036907;28;20140;-78
2022/08/27 06:38:52;;;;;;;0.10;0.10;;;16.10;99.90;;;;;;5011329;28;20037;-78
2022/08/27 06:41:21;;;;;;;0.50;0.20;;;16.40;99.90;;;;;;5008441;28;20041;-79
2022/08/27 06:43:47;;;;;;;0.40;0.17;;;16.50;99.90;;;;;;5042906;28;20063;-78
2022/08/27 06:46:16;;;;;;;0.25;0.20;;;16.50;99.90;;;;;;5043324;28;20049;-78
2022/08/27 06:48:45;;;;;;;0.17;0.13;;;16.60;99.90;;;;;;5041907;28;20063;-79
2022/08/27 06:51:17;;;;;;;0.32;0.20;;;16.70;99.90;;;;;;5023177;28;20107;-80
2022/08/27 06:53:45;;;;;;;0.95;0.30;;;16.80;99.90;;;;;;5026967;28;20597;-80
2022/08/27 06:56:13;;;;;;;0.50;0.30;;;16.80;99.90;;;;;;5036059;28;20544;-80
2022/08/27 06:58:39;;;;;;;0.57;0.28;;;17.00;99.90;;;;;;5042546;28;20200;-79
2022/08/27 07:01:21;;;;;;;0.22;0.15;;;17.10;99.90;;;;;;5043806;28;20166;-79
2022/08/27 07:03:47;;;;;;;1.50;0.40;;;17.20;99.90;;;;;;5045350;28;20064;-80
2022/08/27 07:06:15;;;;;;;0.63;0.22;;;17.20;99.90;;;;;;5024516;28;20087;-80
2022/08/27 07:08:41;;;;;;;1.30;0.50;;;17.30;99.90;;;;;;5025837;28;20106;-80
2022/08/27 07:11:08;;;;;;;0.40;0.20;;;17.40;99.90;;;;;;5040794;28;20041;-81
2022/08/27 07:13:34;;;;;;;0.68;0.40;;;17.50;99.90;;;;;;5025513;28;20556;-81
2022/08/27 07:16:05;;;;;;;0.80;0.30;;;17.60;99.90;;;;;;5042792;28;20171;-81
2022/08/27 07:18:32;;;;;;;1.85;0.60;;;17.70;99.90;;;;;;5041981;28;20408;-78
2022/08/27 07:20:57;;;;;;;0.52;0.30;;;17.80;99.90;;;;;;5043325;28;20123;-80
2022/08/27 07:23:23;;;;;;;;;;;18.20;99.90;;;;;;5042271;28;20552;-80
2022/08/27 07:25:49;;;;;;;1.95;0.68;;;18.20;99.90;;;;;;5019220;28;19920;-79
2022/08/27 07:28:15;;;;;;;1.77;0.80;;;18.20;99.90;;;;;;5042904;28;20132;-79
2022/08/27 07:30:41;;;;;;;1.95;0.70;;;18.40;99.90;;;;;;5017442;28;20048;-79
2022/08/27 07:33:07;;;;;;;;;;;18.30;99.90;;;;;;5042714;28;20060;-80
2022/08/27 07:35:32;;;;;;;0.73;0.40;;;18.40;99.90;;;;;;5017561;28;20027;-80
2022/08/27 07:37:58;;;;;;;;;;;18.40;99.90;;;;;;5023749;28;20044;-80
2022/08/27 07:40:24;;;;;;;2.30;0.77;;;18.40;99.90;;;;;;5043413;28;19920;-80
2022/08/27 07:45:42;;;;;;;2.35;0.80;;;18.50;99.90;;;;;;5027255;28;20434;-77
2022/08/27 07:48:07;;;;;;;4.03;1.05;;;18.50;99.90;;;;;;5039342;28;20037;-79
2022/08/27 07:50:33;;;;;;;;;;;18.50;99.90;;;;;;5039817;28;20045;-80
2022/08/27 07:52:58;;;;;;;1.92;0.90;;;18.50;99.90;;;;;;5041011;28;19974;-82
2022/08/27 07:55:24;;;;;;;2.67;0.85;;;18.40;99.90;;;;;;5013164;28;20476;-82
2022/08/27 07:57:51;;;;;;;;;;;18.40;99.90;;;;;;5043650;28;20049;-81
2022/08/27 08:00:17;;;;;;;2.20;0.75;;;18.40;99.90;;;;;;5031741;28;20417;-81
2022/08/27 08:02:43;;;;;;;;;;;18.40;99.90;;;;;;5044759;28;20033;-81
2022/08/27 08:05:11;;;;;;;1.90;0.70;;;18.40;99.90;;;;;;5026608;28;19917;-81
2022/08/27 08:07:38;;;;;;;1.73;0.50;;;18.40;99.90;;;;;;5047702;28;20048;-81
2022/08/27 08:10:06;;;;;;;1.67;0.65;;;18.40;99.90;;;;;;5051880;28;20603;-81
2022/08/27 08:12:35;;;;;;;3.05;0.82;;;18.60;99.90;;;;;;5022088;28;20044;-85
2022/08/27 08:15:01;;;;;;;3.15;1.02;;;18.60;99.90;;;;;;5046045;28;20104;-83
2022/08/27 08:17:34;;;;;;;2.33;0.80;;;18.60;99.90;;;;;;5048683;28;20103;-84
2022/08/27 08:20:01;;;;;;;1.83;0.75;;;18.70;99.90;;;;;;5033309;28;20075;-83
2022/08/27 08:22:27;;;;;;;2.00;0.70;;;18.80;99.90;;;;;;5048177;28;20412;-83
2022/08/27 08:24:53;;;;;;;;;;;18.90;99.90;;;;;;5049840;28;20041;-83
2022/08/27 08:27:19;;;;;;;3.03;0.80;;;19.00;99.90;;;;;;5047670;28;19912;-84
2022/08/27 08:29:50;;;;;;;2.22;0.68;;;19.10;99.90;;;;;;5036389;28;20488;-85
2022/08/27 08:32:16;;;;;;;2.58;0.82;;;19.10;99.90;;;;;;5032817;28;20040;-83
2022/08/27 08:34:43;;;;;;;4.88;0.90;;;19.20;99.90;;;;;;5032123;28;20228;-85
2022/08/27 08:37:09;;;;;;;4.45;0.90;;;19.10;99.90;;;;;;5013431;28;20045;-83
2022/08/27 08:39:36;;;;;;;2.40;0.73;;;19.10;99.90;;;;;;5030302;28;20425;-82
2022/08/27 08:42:05;;;;;;;1.60;0.65;;;19.00;99.90;;;;;;5047220;28;20116;-82
2022/08/27 08:44:59;;;;;;;2.33;0.75;;;19.10;99.90;;;;;;5039510;28;20139;-82
2022/08/27 08:47:52;;;;;;;1.98;0.70;;;19.20;99.90;;;;;;5028310;28;20053;-82
2022/08/27 08:50:43;;;;;;;1.90;0.70;;;19.20;99.90;;;;;;5026161;28;20063;-80
2022/08/27 08:53:18;;;;;;;0.60;0.30;;;19.60;99.90;;;;;;5044078;28;20377;-80
2022/08/27 08:55:52;;;;;;;1.00;0.30;;;19.60;99.90;;;;;;5025425;28;20137;-81
2022/08/27 08:58:20;;;;;;;0.93;0.32;;;19.60;99.90;;;;;;5036661;28;20041;-82
2022/08/27 09:00:56;;;;;;;2.75;0.50;;;19.60;99.90;;;;;;5047237;28;20392;-82
2022/08/27 09:03:22;;;;;;;2.92;0.88;;;19.40;99.90;;;;;;5045616;28;20064;-81
2022/08/27 09:06:02;;;;;;;2.47;0.70;;;19.30;99.90;;;;;;5021839;28;20416;-81
2022/08/27 09:08:33;;;;;;;2.70;0.90;;;19.20;99.90;;;;;;5045608;28;20049;-82
2022/08/27 09:11:06;;;;;;;4.47;1.05;;;19.20;99.90;;;;;;5019798;28;20151;-81
2022/08/27 09:13:41;;;;;;;2.50;0.77;;;19.20;99.90;;;;;;5045472;28;20063;-81
2022/08/27 09:16:07;;;;;;;1.73;0.52;;;19.30;99.90;;;;;;5045364;28;20433;-81
2022/08/27 09:18:35;;;;;;;;;;;19.50;99.90;;;;;;5025680;28;20068;-81
2022/08/27 09:21:41;;;;;;;2.72;0.93;;;19.50;99.90;;;;;;5021706;28;19924;-82
2022/08/27 09:24:16;;;;;;;1.90;0.60;;;19.60;99.90;;;;;;4934675;28;20066;-81
2022/08/27 09:26:44;;;;;;;2.25;0.70;;;19.60;99.90;;;;;;5032358;28;20052;-82
2022/08/27 09:29:19;;;;;;;2.33;0.82;;;19.60;99.90;;;;;;5020791;28;20114;-81
2022/08/27 09:31:45;;;;;;;1.47;0.60;;;19.70;99.90;;;;;;5030738;28;20048;-82
2022/08/27 09:34:11;;;;;;;;;;;19.80;99.90;;;;;;5045205;28;20052;-82
2022/08/27 09:37:05;;;;;;;2.70;0.90;;;19.90;99.90;;;;;;5044141;28;19921;-81
2022/08/27 09:39:46;;;;;;;3.00;0.50;;;19.80;99.90;;;;;;5045621;28;20065;-85
2022/08/27 09:42:36;;;;;;;2.95;0.68;;;19.70;99.90;;;;;;5027548;28;20040;-83
2022/08/27 09:45:08;;;;;;;2.45;0.70;;;19.50;99.90;;;;;;5044859;28;20048;-83
2022/08/27 09:47:50;;;;;;;2.13;0.70;;;19.40;99.90;;;;;;5028639;28;20033;-83
2022/08/27 09:50:22;;;;;;;2.50;0.73;;;19.30;99.90;;;;;;5026079;28;20168;-81
2022/08/27 09:52:54;;;;;;;1.52;0.50;;;19.30;99.90;;;;;;5046332;28;20066;-82
2022/08/27 09:55:29;;;;;;;3.35;0.95;;;19.30;99.90;;;;;;5022662;28;20068;-81
2022/08/27 09:57:55;;;;;;;1.63;0.60;;;19.40;99.90;;;;;;5018904;28;20412;-81
2022/08/27 10:00:35;;;;;;;2.90;0.60;;;19.40;99.90;;;;;;5025214;28;20037;-81
2022/08/27 10:03:02;;;;;;;3.42;0.90;;;19.50;99.90;;;;;;5025048;28;20044;-79
2022/08/27 10:05:41;;;;;;;1.92;0.68;;;19.50;99.90;;;;;;5045216;28;20045;-79
2022/08/27 10:08:40;;;;;;;1.88;0.75;;;19.60;99.90;;;;;;5038289;28;20135;-81
2022/08/27 10:11:18;;;;;;;2.17;0.60;;;19.60;99.90;;;;;;5027096;28;20041;-78
2022/08/27 10:14:13;;;;;;;2.63;0.70;;;19.70;99.90;;;;;;5045002;28;20056;-78
2022/08/27 10:17:11;;;;;;;2.83;0.88;;;20.00;99.90;;;;;;5061924;28;20079;-77
2022/08/27 10:20:00;;;;;;;1.88;0.68;;;20.60;99.90;;;;;;5044387;28;20045;-77
2022/08/27 10:22:30;;;;;;;3.65;0.70;;;20.80;99.90;;;;;;5006254;28;20072;-76
2022/08/27 10:25:05;;;;;;;2.13;0.68;;;21.30;99.90;;;;;;5045480;28;20056;-76
2022/08/27 10:27:33;;;;;;;4.93;0.95;;;21.80;99.90;;;;;;5045799;28;20095;-76
2022/08/27 10:30:10;;;;;;;2.35;0.70;;;21.40;97.80;;;;;;5024607;28;20041;-76
2022/08/27 10:32:42;;;;;;;2.65;0.82;;;21.00;99.10;;;;;;5047189;28;20048;-78
2022/08/27 10:35:15;;;;;;;2.67;1.05;;;20.90;99.80;;;;;;5044492;28;20094;-80
2022/08/27 10:37:58;;;;;;;2.20;0.70;;;20.90;99.60;;;;;;5049687;28;20040;-80
2022/08/27 10:40:33;;;;;;;2.33;0.60;;;20.60;99.30;;;;;;5046997;28;20592;-81
2022/08/27 10:43:26;;;;;;;1.67;0.70;;;20.30;99.40;;;;;;5048640;28;20048;-79
2022/08/27 10:46:22;;;;;;;1.15;0.52;;;20.40;99.90;;;;;;5044179;28;20078;-81
2022/08/27 10:49:13;;;;;;;2.25;0.60;;;21.10;99.90;;;;;;5047621;28;20071;-81
2022/08/27 10:51:51;;;;;;;2.15;0.70;;;22.00;99.40;;;;;;5024298;28;20105;-81
2022/08/27 10:54:39;;;;;;;2.03;0.60;;;22.40;98.10;;;;;;5044371;28;20067;-82
2022/08/27 10:57:15;;;;;;;1.80;0.60;;;21.70;98.00;;;;;;5017401;28;20089;-81
2022/08/27 11:00:15;;;;;;;1.27;0.55;;;21.50;98.90;;;;;;5053390;28;20506;-82
2022/08/27 11:02:48;;;;;;;2.53;0.98;;;21.20;99.30;;;;;;5042354;28;20040;-76
2022/08/27 11:05:22;;;;;;;2.20;0.80;;;20.70;98.70;;;;;;5052797;28;20534;-78
2022/08/27 11:07:54;;;;;;;2.22;0.68;;;20.50;99.10;;;;;;5050500;28;20475;-77
2022/08/27 11:10:27;;;;;;;2.63;0.60;;;20.40;99.00;;;;;;5048738;28;20495;-78
2022/08/27 11:12:58;;;;;;;2.13;0.70;;;20.50;99.10;;;;;;5031298;28;20485;-82
2022/08/27 11:15:34;;;;;;;2.90;0.65;;;20.70;99.70;;;;;;5044550;28;20079;-80
2022/08/27 11:18:25;;;;;;;2.08;0.63;;;20.70;98.90;;;;;;5042124;28;20040;-75
2022/08/27 11:21:00;;;;;;;2.97;0.65;;;21.00;99.20;;;;;;5046171;28;21477;-79
2022/08/27 11:23:42;;;;;;;2.08;0.50;;;21.50;99.40;;;;;;5044052;28;20045;-79
2022/08/27 11:26:08;;;;;;;2.00;0.70;;;22.20;99.00;;;;;;5027334;28;20048;-80
2022/08/27 11:28:57;;;;;;;2.42;0.65;;;22.40;98.00;;;;;;5051787;28;20042;-79
2022/08/27 11:31:55;;;;;;;3.17;0.70;;;22.60;97.30;;;;;;5037504;28;20094;-80
2022/08/27 11:34:40;;;;;;;3.53;0.93;;;22.80;95.90;;;;;;5051022;28;20044;-80
2022/08/27 11:37:20;;;;;;;3.03;0.80;;;22.60;96.40;;;;;;5031180;28;20044;-80
2022/08/27 11:40:04;;;;;;;0.70;0.40;;;22.40;96.60;;;;;;5021590;28;20044;-80
2022/08/27 11:42:44;;;;;;;1.42;0.40;;;22.10;96.30;;;;;;5043509;28;20075;-76
2022/08/27 11:45:56;;;;;;;1.58;0.70;;;22.00;97.40;;;;;;5073211;28;20036;-80
2022/08/27 11:48:27;;;;;;;3.05;0.90;;;22.20;97.40;;;;;;4964733;28;20053;-75
2022/08/27 11:50:59;;;;;;;1.10;0.40;;;21.80;97.00;;;;;;4966004;28;20045;-79
2022/08/27 11:53:31;;;;;;;2.05;0.50;;;21.80;97.60;;;;;;5010492;28;20157;-79
2022/08/27 11:55:57;;;;;;;1.67;0.43;;;21.90;97.90;;;;;;5046758;28;20485;-74
2022/08/27 11:58:30;;;;;;;1.90;0.50;;;22.20;97.60;;;;;;5046767;28;20480;-80
2022/08/27 12:00:56;;;;;;;2.15;0.70;;;22.50;97.50;;;;;;5044871;28;20150;-73
2022/08/27 12:03:33;;;;;;;1.92;0.70;;;22.70;96.30;;;;;;5028865;28;20109;-79
2022/08/27 12:06:23;;;;;;;2.50;0.73;;;22.20;96.70;;;;;;5049370;28;20044;-82
2022/08/27 12:08:50;;;;;;;2.47;0.60;;;22.10;96.90;;;;;;5068385;28;20032;-81
2022/08/27 12:11:24;;;;;;;2.03;0.75;;;21.90;96.40;;;;;;5052319;28;20053;-74
2022/08/27 12:13:56;;;;;;;2.65;0.40;;;21.60;97.10;;;;;;5031667;28;20049;-80
2022/08/27 12:16:34;;;;;;;1.88;0.60;;;21.40;97.60;;;;;;5032104;28;20103;-80
2022/08/27 12:19:17;;;;;;;2.65;0.80;;;21.50;97.10;;;;;;5017080;28;20059;-80
2022/08/27 12:22:02;;;;;;;2.35;0.60;;;21.70;97.30;;;;;;5031618;28;20080;-73
2022/08/27 12:24:52;;;;;;;1.52;0.50;;;22.10;96.40;;;;;;5032445;28;20091;-74
2022/08/27 12:27:23;;;;;;;2.05;0.70;;;22.60;96.90;;;;;;5032876;28;20581;-80
2022/08/27 12:29:56;;;;;;;1.67;0.57;;;22.60;96.20;;;;;;5032524;28;20059;-80
2022/08/27 12:32:37;;;;;;;1.38;0.60;;;22.50;96.10;;;;;;5033084;28;20053;-80
2022/08/27 12:35:18;;;;;;;1.88;0.40;;;22.30;96.30;;;;;;5033287;28;20152;-80
2022/08/27 12:38:12;;;;;;;2.00;0.57;;;22.20;96.40;;;;;;5033410;28;20131;-80
2022/08/27 12:40:53;;;;;;;2.28;0.68;;;22.30;96.50;;;;;;5033421;28;20037;-80
2022/08/27 12:43:25;;;;;;;3.63;0.80;;;22.30;96.10;;;;;;5032926;28;20569;-80
2022/08/27 12:46:00;;;;;;;2.28;0.50;;;22.10;96.20;;;;;;5050741;28;20049;-74
2022/08/27 12:48:42;;;;;;;0.95;0.40;;;22.00;96.40;;;;;;5032727;28;20106;-74
2022/08/27 12:51:14;;;;;;;1.45;0.40;;;22.00;96.20;;;;;;5032282;28;20447;-80
2022/08/27 12:54:00;;;;;;;1.30;0.30;;;22.10;96.40;;;;;;5018830;28;20120;-75
2022/08/27 12:56:44;;;;;;;2.85;0.65;;;21.80;96.20;;;;;;5036297;28;20053;-80
2022/08/27 12:59:34;;;;;;;2.17;0.57;;;21.40;96.90;;;;;;5036736;28;20087;-80
2022/08/27 13:02:30;;;;;;;1.73;0.50;;;21.30;96.80;;;;;;5036216;28;20032;-81
2022/08/27 13:05:00;;;;;;;2.22;0.60;;;21.80;96.90;;;;;;5019301;28;20055;-81
2022/08/27 13:07:33;;;;;;;2.80;0.57;;;22.30;97.20;;;;;;5036148;28;20175;-80
2022/08/27 13:10:19;;;;;;;2.22;0.47;;;22.80;96.70;;;;;;5036162;28;20497;-74
2022/08/27 13:12:46;;;;;;;0.90;0.50;;;22.30;95.50;;;;;;5035808;28;20052;-81
2022/08/27 13:15:14;;;;;;;2.28;0.73;;;22.10;96.50;;;;;;5036483;28;20075;-81
2022/08/27 13:17:45;;;;;;;2.25;0.80;;;21.70;96.90;;;;;;5035696;28;20472;-74